Portada
METAR-TAF:

METAR-TAF

Aeropuertos :

Kermán, Irán

latitud: 30-15N, longitud: 056-58E, altitud: 1748 m

Observación

El informe se hizo hace 24 minutos, a las 03:00 UTC
Viento 4 kt del este
Temperatura 2°C
Humedad 93%
Presión 1020 hPa
Visibilidad: 1500 m
Escasas nubes a una altura de 4000 ft
neblina

METAR: OIKK 280300Z 10004KT 1500 BR FEW040 02/01 Q1020 A3012

Hora: 06:54 (03:24 UTC)

Pronóstico

El informe se hizo hace 4 horas y 24 minutos, a las 23:00 UTC
Pronóstico válido del 28 a las 00 UTC al 01 a las 06 UTC
Viento 4 kt del norte-noreste
Visibilidad: 8000 m
Escasas nubes a una altura de 4000 ft
Temporalmente
del 28 a las 00 UTC al 28 a las 04 UTC
Visibilidad: 4000 m
neblina

TAF: OIKK 272300Z 2800/0106 02004KT 8000 FEW040 TEMPO 2800/2804 4000 BR

Observaciones y pronósticos meteorológicos de más de 4000 aeropuertos (mensajes METAR y TAF).

Los puntos amarillos y rojos representan las estaciones disponibles.

Ponga el ratón en el punto deseado para ver el nombre de la estación.

Haga clic para ver las observaciones y los pronósticos meteorológicos.

Para cambiar el mapa : haga clic en los botones verdes con una cruz de color negro para hacer un zoom, en el botón verde con un guión para alejar o en las flechas verdes para mapas adyacentes.


METAR-TAF: